createdAt,value
2018-05-04T00:02:05.628Z,12.00
2018-05-04T00:04:33.842Z,13.33
2018-05-04T00:07:02.045Z,11.87
2018-05-04T00:09:30.114Z,12.10
2018-05-04T00:11:58.105Z,11.87
2018-05-04T00:14:25.563Z,12.00
2018-05-04T00:16:52.994Z,12.17
2018-05-04T00:19:20.433Z,12.07
2018-05-04T00:21:47.887Z,13.60
2018-05-04T00:24:15.341Z,12.93
2018-05-04T00:26:42.790Z,12.63
2018-05-04T00:29:10.838Z,13.27
2018-05-04T00:31:38.295Z,14.10
2018-05-04T00:34:05.732Z,13.23
2018-05-04T00:36:33.174Z,14.33
2018-05-04T00:39:00.610Z,12.87
2018-05-04T00:41:28.062Z,13.17
2018-05-04T00:43:57.533Z,14.10
2018-05-04T00:46:24.966Z,14.00
2018-05-04T00:48:52.398Z,14.00
2018-05-04T00:51:20.696Z,13.93
2018-05-04T00:54:00.365Z,14.53
2018-05-04T00:56:28.574Z,13.40
2018-05-04T00:58:56.018Z,14.77
2018-05-04T01:01:23.463Z,14.70
2018-05-04T01:03:50.911Z,14.60
2018-05-04T01:06:19.181Z,13.83
2018-05-04T01:08:46.565Z,13.83
2018-05-04T01:11:14.010Z,13.27
2018-05-04T01:13:41.462Z,13.93
2018-05-04T01:16:08.916Z,15.00
2018-05-04T01:18:37.113Z,14.60
2018-05-04T01:21:05.330Z,13.83
2018-05-04T01:23:33.542Z,14.60
2018-05-04T01:26:00.999Z,13.83
2018-05-04T01:28:29.213Z,14.40
2018-05-04T01:30:57.417Z,13.77
2018-05-04T01:33:24.857Z,14.87
2018-05-04T01:35:52.297Z,14.67
2018-05-04T01:38:19.751Z,14.60
2018-05-04T01:40:47.961Z,15.73
2018-05-04T01:43:15.398Z,14.90
2018-05-04T01:45:42.853Z,14.60
2018-05-04T01:48:10.295Z,14.30
2018-05-04T01:50:37.743Z,14.80
2018-05-04T01:53:05.174Z,15.80
2018-05-04T01:55:32.617Z,14.47
2018-05-04T01:58:00.822Z,13.43
2018-05-04T02:00:29.034Z,13.57
2018-05-04T02:02:56.474Z,14.70
2018-05-04T02:05:23.936Z,14.07
2018-05-04T02:07:51.389Z,13.97
2018-05-04T02:10:19.587Z,14.20
2018-05-04T02:12:47.035Z,14.00
2018-05-04T02:15:14.490Z,14.57
2018-05-04T02:17:41.933Z,15.20
2018-05-04T02:20:09.373Z,14.27
2018-05-04T02:22:37.578Z,14.10
2018-05-04T02:25:05.794Z,14.30
2018-05-04T02:27:34.007Z,14.30
2018-05-04T02:30:01.459Z,14.47
2018-05-04T02:32:29.665Z,14.23
2018-05-04T02:34:57.870Z,13.03
2018-05-04T02:37:26.090Z,12.60
2018-05-04T02:39:53.536Z,14.13
2018-05-04T02:42:21.747Z,13.87
2018-05-04T02:44:49.946Z,13.90
2018-05-04T02:47:18.161Z,14.50
2018-05-04T02:49:45.598Z,15.17
2018-05-04T02:52:13.050Z,13.80
2018-05-04T02:54:40.491Z,14.23
2018-05-04T02:57:07.933Z,13.77
2018-05-04T02:59:35.378Z,14.40
2018-05-04T03:02:02.829Z,14.43
2018-05-04T03:04:31.064Z,14.17
2018-05-04T03:06:58.509Z,14.30
2018-05-04T03:09:26.715Z,14.87
2018-05-04T03:11:54.180Z,15.57
2018-05-04T03:14:21.615Z,14.33
2018-05-04T03:16:49.062Z,15.07
2018-05-04T03:19:16.497Z,14.40
2018-05-04T03:21:43.947Z,14.33
2018-05-04T03:24:11.387Z,14.93
2018-05-04T03:26:39.595Z,14.57
2018-05-04T03:29:07.029Z,16.20
2018-05-04T03:31:34.478Z,14.27
2018-05-04T03:34:01.911Z,15.50
2018-05-04T03:36:29.354Z,13.30
2018-05-04T03:38:56.797Z,15.50
2018-05-04T03:41:25.002Z,16.63
2018-05-04T03:43:52.458Z,16.00
2018-05-04T03:46:19.910Z,15.90
2018-05-04T03:48:47.345Z,15.57
2018-05-04T03:51:14.789Z,15.40
2018-05-04T03:53:42.231Z,15.50
2018-05-04T03:56:09.669Z,16.23
2018-05-04T03:58:49.797Z,16.20
2018-05-04T04:01:29.166Z,15.33
2018-05-04T04:04:08.549Z,15.67
2018-05-04T04:06:35.998Z,15.37
2018-05-04T04:09:03.432Z,15.20
2018-05-04T04:11:31.637Z,17.00
2018-05-04T04:13:59.843Z,16.30
2018-05-04T04:16:28.054Z,15.87
2018-05-04T04:18:55.488Z,16.57
2018-05-04T04:21:22.929Z,16.53
2018-05-04T04:23:50.383Z,16.17
2018-05-04T04:26:18.602Z,15.80
2018-05-04T04:28:46.853Z,17.10
2018-05-04T04:31:14.313Z,16.33
2018-05-04T04:33:41.754Z,14.77
2018-05-04T04:36:09.194Z,14.63
2018-05-04T04:38:36.682Z,16.10
2018-05-04T04:41:04.114Z,14.30
2018-05-04T04:43:31.558Z,16.23
2018-05-04T04:45:59.766Z,17.07
2018-05-04T04:48:27.977Z,15.20
2018-05-04T04:50:55.423Z,15.90
2018-05-04T04:53:22.867Z,16.23
2018-05-04T04:55:50.302Z,17.03
2018-05-04T04:58:18.513Z,15.13
2018-05-04T05:00:45.952Z,17.13
2018-05-04T05:03:13.397Z,14.30
2018-05-04T05:05:40.841Z,16.13
2018-05-04T05:08:09.051Z,15.70
2018-05-04T05:10:36.482Z,16.13
2018-05-04T05:13:03.938Z,15.57
2018-05-04T05:15:31.383Z,16.07
2018-05-04T05:17:59.597Z,15.30
2018-05-04T05:20:27.029Z,17.10
2018-05-04T05:22:54.486Z,14.33
2018-05-04T05:25:21.922Z,16.53
2018-05-04T05:27:50.130Z,15.30
2018-05-04T05:30:18.342Z,15.67
2018-05-04T05:32:45.799Z,15.60
2018-05-04T05:35:13.226Z,15.50
2018-05-04T05:37:40.675Z,15.50
2018-05-04T05:40:08.877Z,15.60
2018-05-04T05:42:36.329Z,14.10
2018-05-04T05:45:03.762Z,15.07
2018-05-04T05:47:31.214Z,14.17
2018-05-04T05:49:58.653Z,15.43
2018-05-04T05:52:26.104Z,15.40
2018-05-04T05:54:53.540Z,14.33
2018-05-04T05:57:21.762Z,13.57
2018-05-04T05:59:49.193Z,13.40
2018-05-04T06:02:16.642Z,12.87
2018-05-04T06:04:44.073Z,18.30
2018-05-04T06:07:11.514Z,13.90
2018-05-04T06:09:39.734Z,13.80
2018-05-04T06:12:07.173Z,12.83
2018-05-04T06:14:34.613Z,12.47
2018-05-04T06:17:02.821Z,12.40
2018-05-04T06:19:31.035Z,12.30
2018-05-04T06:21:58.469Z,13.73
2018-05-04T06:24:25.916Z,12.77
2018-05-04T06:26:53.345Z,12.77
2018-05-04T06:29:20.797Z,13.43
2018-05-04T06:31:48.245Z,13.60
2018-05-04T06:34:15.682Z,12.67
2018-05-04T06:36:43.122Z,12.97
2018-05-04T06:39:10.570Z,12.13
2018-05-04T06:41:38.768Z,13.03
2018-05-04T06:44:06.977Z,14.43
2018-05-04T06:46:34.422Z,13.20
2018-05-04T06:49:01.878Z,12.50
2018-05-04T06:51:29.318Z,13.50
2018-05-04T06:53:57.521Z,12.40
2018-05-04T06:56:24.957Z,11.70
2018-05-04T06:58:52.415Z,12.93
2018-05-04T07:01:19.854Z,12.13
2018-05-04T07:03:48.071Z,11.40
2018-05-04T07:06:15.518Z,12.93
2018-05-04T07:08:42.969Z,14.40
2018-05-04T07:11:10.406Z,12.93
2018-05-04T07:13:37.845Z,11.90
2018-05-04T07:16:05.277Z,12.83
2018-05-04T07:18:32.721Z,12.60
2018-05-04T07:21:00.160Z,12.97
2018-05-04T07:23:27.606Z,11.83
2018-05-04T07:25:55.054Z,13.73
2018-05-04T07:28:22.498Z,10.77
2018-05-04T07:30:49.933Z,11.85
2018-05-04T07:33:18.154Z,12.43
2018-05-04T07:35:45.595Z,11.63
2018-05-04T07:38:13.042Z,12.17
2018-05-04T07:40:40.472Z,11.10
2018-05-04T07:43:07.938Z,11.03
2018-05-04T07:45:35.354Z,11.03
2018-05-04T07:48:02.793Z,11.70
2018-05-04T07:50:30.238Z,11.57
2018-05-04T07:52:57.678Z,11.70
2018-05-04T07:55:25.887Z,11.70
2018-05-04T07:57:54.091Z,10.83
2018-05-04T08:00:21.530Z,11.60
2018-05-04T08:02:49.031Z,10.67
2018-05-04T08:05:16.421Z,10.10
2018-05-04T08:07:44.636Z,10.30
2018-05-04T08:10:12.074Z,11.60
2018-05-04T08:12:39.517Z,11.60
2018-05-04T08:15:06.969Z,13.00
2018-05-04T08:17:35.178Z,11.83
2018-05-04T08:20:02.698Z,11.73
2018-05-04T08:22:30.062Z,10.60
2018-05-04T08:24:57.515Z,9.93
2018-05-04T08:27:24.972Z,10.47
2018-05-04T08:29:52.390Z,10.97
2018-05-04T08:32:19.833Z,10.80
2018-05-04T08:34:47.269Z,9.00
2018-05-04T08:37:14.714Z,10.00
2018-05-04T08:39:42.924Z,9.80
2018-05-04T08:42:10.362Z,9.90
2018-05-04T08:44:37.798Z,11.33
2018-05-04T08:47:05.251Z,10.37
2018-05-04T08:49:33.461Z,11.10
2018-05-04T08:52:00.910Z,10.43
2018-05-04T08:54:28.449Z,10.57
2018-05-04T08:56:55.797Z,10.47
2018-05-04T08:59:23.255Z,10.15
2018-05-04T09:01:51.453Z,9.90
2018-05-04T09:04:18.898Z,10.90
2018-05-04T09:06:46.338Z,11.40
2018-05-04T09:09:14.554Z,11.80
2018-05-04T09:11:41.981Z,11.03
2018-05-04T09:14:09.435Z,11.23
2018-05-04T09:16:36.874Z,11.57
2018-05-04T09:19:05.089Z,10.93
2018-05-04T09:21:32.530Z,11.73
2018-05-04T09:23:59.980Z,11.90
2018-05-04T09:26:27.417Z,11.37
2018-05-04T09:28:55.626Z,9.80
2018-05-04T09:31:23.071Z,11.80
2018-05-04T09:33:50.517Z,12.10
2018-05-04T09:36:17.949Z,11.53
2018-05-04T09:38:46.171Z,10.63
2018-05-04T09:41:13.606Z,10.60
2018-05-04T09:43:41.075Z,10.83
2018-05-04T09:46:08.489Z,11.33
2018-05-04T09:48:36.729Z,11.00
2018-05-04T09:51:04.177Z,10.83
2018-05-04T09:53:32.381Z,10.70
2018-05-04T09:55:59.883Z,12.15
2018-05-04T09:58:27.294Z,12.20
2018-05-04T10:00:54.725Z,11.87
2018-05-04T10:03:22.173Z,11.73
2018-05-04T10:05:49.633Z,12.50
2018-05-04T10:08:17.077Z,13.70
2018-05-04T10:10:44.546Z,12.10
2018-05-04T10:13:12.746Z,12.18
2018-05-04T10:15:40.201Z,11.80
2018-05-04T10:18:07.646Z,11.85
2018-05-04T10:20:35.093Z,11.10
2018-05-04T10:23:02.524Z,11.50
2018-05-04T10:25:29.974Z,10.30
2018-05-04T10:27:57.409Z,11.07
2018-05-04T10:30:25.642Z,11.15
2018-05-04T10:32:53.077Z,11.20
2018-05-04T10:35:20.527Z,11.93
2018-05-04T10:37:47.967Z,12.23
2018-05-04T10:40:15.413Z,12.43
2018-05-04T10:42:42.853Z,12.60
2018-05-04T10:45:10.367Z,12.17
2018-05-04T10:47:38.497Z,13.13
2018-05-04T10:50:06.735Z,14.67
2018-05-04T10:52:34.178Z,12.53
2018-05-04T10:55:02.393Z,13.03
2018-05-04T10:57:29.829Z,12.70
2018-05-04T10:59:57.285Z,12.10
2018-05-04T11:02:24.716Z,13.53
2018-05-04T11:04:52.930Z,12.33
2018-05-04T11:07:20.362Z,13.70
2018-05-04T11:09:47.806Z,12.40
2018-05-04T11:12:15.246Z,15.37
2018-05-04T11:14:42.688Z,14.80
2018-05-04T11:17:10.126Z,12.90
2018-05-04T11:19:38.341Z,12.90
2018-05-04T11:22:05.773Z,11.10
2018-05-04T11:24:33.232Z,11.90
2018-05-04T11:27:00.690Z,11.30
2018-05-04T11:29:28.130Z,16.53
2018-05-04T11:31:55.573Z,10.90
2018-05-04T11:34:23.022Z,11.40
2018-05-04T11:36:50.461Z,12.47
2018-05-04T11:39:17.901Z,19.27
2018-05-04T11:41:45.338Z,12.23
2018-05-04T11:44:12.793Z,12.57
2018-05-04T11:46:40.228Z,9.40
2018-05-04T11:49:07.673Z,11.10
2018-05-04T11:51:35.124Z,13.80
2018-05-04T11:54:02.558Z,17.90
2018-05-04T11:56:30.001Z,10.63
2018-05-04T11:58:57.447Z,12.97
2018-05-04T12:01:24.897Z,11.53
2018-05-04T12:03:53.142Z,10.30
2018-05-04T12:06:20.587Z,10.83
2018-05-04T12:08:48.022Z,8.83
2018-05-04T12:11:15.470Z,10.30
2018-05-04T12:13:42.906Z,13.20
2018-05-04T12:16:10.420Z,12.07
2018-05-04T12:18:37.795Z,10.50
2018-05-04T12:21:05.233Z,12.03
2018-05-04T12:23:32.690Z,10.10
2018-05-04T12:26:00.134Z,9.30
2018-05-04T12:28:27.570Z,10.17
2018-05-04T12:30:55.010Z,10.90
2018-05-04T12:33:22.449Z,10.93
2018-05-04T12:35:49.893Z,10.83
2018-05-04T12:38:17.337Z,11.03
2018-05-04T12:40:44.789Z,10.73
2018-05-04T12:43:12.228Z,10.63
2018-05-04T12:45:39.669Z,10.97
2018-05-04T12:48:07.882Z,11.13
2018-05-04T12:50:35.325Z,11.37
2018-05-04T12:53:02.761Z,10.33
2018-05-04T12:55:30.197Z,9.90
2018-05-04T12:57:58.401Z,10.30
2018-05-04T13:00:26.610Z,9.00
2018-05-04T13:02:54.810Z,10.03
2018-05-04T13:05:22.253Z,10.63
2018-05-04T13:07:49.690Z,9.73
2018-05-04T13:10:17.151Z,10.50
2018-05-04T13:12:45.359Z,9.20
2018-05-04T13:15:12.798Z,9.10
2018-05-04T13:17:40.241Z,9.07
2018-05-04T13:20:07.687Z,10.53
2018-05-04T13:22:35.889Z,9.60
2018-05-04T13:25:03.342Z,10.17
2018-05-04T13:27:30.781Z,10.43
2018-05-04T13:29:58.217Z,9.20
2018-05-04T13:32:26.417Z,10.07
2018-05-04T13:34:54.629Z,10.10
2018-05-04T13:37:22.834Z,11.20
2018-05-04T13:39:50.273Z,10.20
2018-05-04T13:42:17.705Z,9.90
2018-05-04T13:44:45.150Z,10.30
2018-05-04T13:47:12.597Z,9.13
2018-05-04T13:49:40.030Z,10.80
2018-05-04T13:52:08.247Z,9.17
2018-05-04T13:54:35.682Z,8.40
2018-05-04T13:57:03.121Z,10.27
2018-05-04T13:59:30.557Z,10.60
2018-05-04T14:01:58.771Z,9.57
2018-05-04T14:04:26.974Z,8.07
2018-05-04T14:06:54.422Z,10.47
2018-05-04T14:09:21.867Z,9.60
2018-05-04T14:11:49.327Z,9.50
2018-05-04T14:14:16.763Z,11.47
2018-05-04T14:16:44.206Z,10.03
2018-05-04T14:19:11.645Z,10.40
2018-05-04T14:21:39.858Z,9.70
2018-05-04T14:24:07.290Z,8.87
2018-05-04T14:26:34.730Z,8.70
2018-05-04T14:29:02.161Z,9.77
2018-05-04T14:31:29.602Z,9.40
2018-05-04T14:33:57.037Z,9.10
2018-05-04T14:36:25.238Z,9.10
2018-05-04T14:38:53.433Z,9.70
2018-05-04T14:41:20.901Z,9.20
2018-05-04T14:43:48.342Z,8.60
2018-05-04T14:46:15.790Z,8.70
2018-05-04T14:48:43.984Z,9.00
2018-05-04T14:51:12.185Z,9.20
2018-05-04T14:53:40.408Z,10.20
2018-05-04T14:56:07.846Z,8.70
2018-05-04T14:58:35.295Z,9.60
2018-05-04T15:01:02.717Z,9.23
2018-05-04T15:03:30.917Z,8.80
2018-05-04T15:05:59.122Z,9.27
2018-05-04T15:08:27.331Z,9.90
2018-05-04T15:10:54.770Z,9.67
2018-05-04T15:13:22.201Z,9.93
2018-05-04T15:15:49.642Z,9.30
2018-05-04T15:18:17.082Z,9.03
2018-05-04T15:20:44.522Z,8.40
2018-05-04T15:23:12.724Z,9.60
2018-05-04T15:25:40.933Z,9.50
2018-05-04T15:28:08.369Z,9.37
2018-05-04T15:30:35.809Z,9.40
2018-05-04T15:33:03.254Z,9.47
2018-05-04T15:35:31.461Z,8.77
2018-05-04T15:37:59.667Z,8.50
2018-05-04T15:40:27.897Z,9.17
2018-05-04T15:42:55.318Z,9.07
2018-05-04T15:45:22.747Z,8.30
2018-05-04T15:47:50.185Z,8.73
2018-05-04T15:50:23.189Z,8.83
2018-05-04T15:52:50.629Z,9.03
2018-05-04T15:55:18.061Z,8.83
2018-05-04T15:57:45.492Z,7.97
2018-05-04T16:00:12.930Z,9.37
2018-05-04T16:02:41.133Z,8.90
2018-05-04T16:05:09.333Z,9.10
2018-05-04T16:07:37.537Z,8.30
2018-05-04T16:10:05.734Z,8.30
2018-05-04T16:12:33.937Z,8.80
2018-05-04T16:15:01.369Z,9.20
2018-05-04T16:17:28.813Z,8.80
2018-05-04T16:19:56.250Z,8.30
2018-05-04T16:22:23.691Z,8.50
2018-05-04T16:24:51.126Z,8.20
2018-05-04T16:27:19.334Z,8.37
2018-05-04T16:29:47.526Z,7.70
2018-05-04T16:32:15.734Z,8.33
2018-05-04T16:34:43.933Z,8.00
2018-05-04T16:37:12.146Z,8.10
2018-05-04T16:39:39.585Z,7.97
2018-05-04T16:42:07.019Z,8.70
2018-05-04T16:44:34.457Z,8.70
2018-05-04T16:47:22.475Z,7.67
2018-05-04T16:49:49.913Z,8.83
2018-05-04T16:52:18.118Z,7.90
2018-05-04T16:54:45.563Z,7.67
2018-05-04T16:57:12.993Z,8.33
2018-05-04T16:59:40.425Z,8.50
2018-05-04T17:02:07.862Z,9.60
2018-05-04T17:04:35.298Z,8.53
2018-05-04T17:07:02.747Z,9.83
2018-05-04T17:09:30.186Z,9.10
2018-05-04T17:11:57.621Z,8.50
2018-05-04T17:14:25.073Z,9.13
2018-05-04T17:16:52.501Z,8.83
2018-05-04T17:19:19.933Z,9.47
2018-05-04T17:21:47.373Z,9.80
2018-05-04T17:24:15.574Z,8.70
2018-05-04T17:26:43.777Z,8.87
2018-05-04T17:29:11.977Z,9.63
2018-05-04T17:31:40.186Z,9.37
2018-05-04T17:34:07.665Z,9.73
2018-05-04T17:36:35.061Z,9.00
2018-05-04T17:39:02.501Z,9.43
2018-05-04T17:41:30.714Z,9.73
2018-05-04T17:43:58.921Z,9.50
2018-05-04T17:46:26.376Z,10.03
2018-05-04T17:48:53.809Z,9.80
2018-05-04T17:51:21.243Z,9.50
2018-05-04T17:53:48.681Z,9.23
2018-05-04T17:56:16.113Z,9.37
2018-05-04T17:58:44.322Z,9.57
2018-05-04T18:01:12.518Z,9.70
2018-05-04T18:03:40.732Z,10.00
2018-05-04T18:06:08.162Z,8.80
2018-05-04T18:08:35.605Z,8.87
2018-05-04T18:11:03.035Z,8.70
2018-05-04T18:13:30.478Z,9.23
2018-05-04T18:15:57.917Z,9.57
2018-05-04T18:18:26.126Z,10.53
2018-05-04T18:20:53.563Z,7.97
2018-05-04T18:23:21.002Z,9.00
2018-05-04T18:25:48.446Z,9.03
2018-05-04T18:28:15.882Z,9.60
2018-05-04T18:30:43.316Z,11.80
2018-05-04T18:33:11.521Z,10.10
2018-05-04T18:35:39.722Z,10.17
2018-05-04T18:38:07.167Z,14.30
2018-05-04T18:40:34.607Z,13.30
2018-05-04T18:43:02.049Z,14.37
2018-05-04T18:45:30.261Z,14.97
2018-05-04T18:47:58.473Z,14.93
2018-05-04T18:50:25.918Z,15.60
2018-05-04T18:52:53.357Z,15.50
2018-05-04T18:55:20.801Z,15.70
2018-05-04T18:57:49.026Z,15.37
2018-05-04T19:00:16.476Z,17.93
2018-05-04T19:02:50.385Z,15.90
2018-05-04T19:05:17.822Z,14.93
2018-05-04T19:07:45.282Z,17.30
2018-05-04T19:10:12.719Z,15.47
2018-05-04T19:12:40.157Z,16.47
2018-05-04T19:15:07.594Z,16.70
2018-05-04T19:17:35.828Z,17.77
2018-05-04T19:20:04.014Z,18.00
2018-05-04T19:22:31.460Z,16.90
2018-05-04T19:24:58.892Z,15.73
2018-05-04T19:27:26.342Z,16.07
2018-05-04T19:29:54.544Z,16.70
2018-05-04T19:32:22.758Z,16.30
2018-05-04T19:34:50.265Z,17.50
2018-05-04T19:37:17.643Z,20.40
2018-05-04T19:39:45.087Z,15.83
2018-05-04T19:42:13.294Z,16.10
2018-05-04T19:44:41.494Z,14.70
2018-05-04T19:47:08.958Z,15.93
2018-05-04T19:49:37.157Z,16.13
2018-05-04T19:52:05.360Z,14.70
2018-05-04T19:54:33.576Z,14.57
2018-05-04T19:57:01.013Z,15.20
2018-05-04T19:59:28.449Z,15.30
2018-05-04T20:01:55.903Z,14.83
2018-05-04T20:04:24.120Z,15.20
2018-05-04T20:06:51.549Z,15.07
2018-05-04T20:09:18.989Z,13.60
2018-05-04T20:11:46.458Z,14.20
2018-05-04T20:14:14.653Z,16.43
2018-05-04T20:16:42.857Z,15.13
2018-05-04T20:19:10.310Z,16.73
2018-05-04T20:21:38.509Z,15.00
2018-05-04T20:24:06.834Z,14.10
2018-05-04T20:26:35.018Z,13.50
2018-05-04T20:29:03.232Z,13.93
2018-05-04T20:31:30.664Z,18.30
2018-05-04T20:33:58.110Z,13.07
2018-05-04T20:36:25.541Z,14.17
2018-05-04T20:38:52.981Z,10.33
2018-05-04T20:41:20.422Z,10.13
2018-05-04T20:43:48.629Z,9.10
2018-05-04T20:46:16.834Z,9.87
2018-05-04T20:48:44.278Z,7.40
2018-05-04T20:51:11.715Z,8.33
2018-05-04T20:53:39.145Z,8.23
2018-05-04T20:56:06.655Z,6.80
2018-05-04T20:58:34.859Z,8.73
2018-05-04T21:01:02.293Z,6.90
2018-05-04T21:03:29.736Z,5.13
2018-05-04T21:05:57.174Z,6.30
2018-05-04T21:08:25.391Z,6.20
2018-05-04T21:10:53.587Z,6.13
2018-05-04T21:13:21.803Z,6.47
2018-05-04T21:15:49.231Z,5.40
2018-05-04T21:18:16.670Z,5.40
2018-05-04T21:20:44.101Z,5.40
2018-05-04T21:23:11.537Z,5.80
2018-05-04T21:25:38.969Z,5.90
2018-05-04T21:28:07.179Z,5.23
2018-05-04T21:30:35.383Z,8.40
2018-05-04T21:33:03.595Z,5.63
2018-05-04T21:35:31.028Z,5.60
2018-05-04T21:37:58.468Z,5.40
2018-05-04T21:40:25.910Z,5.60
2018-05-04T21:42:53.354Z,5.23
2018-05-04T21:45:20.789Z,5.20
2018-05-04T21:47:48.986Z,5.17
2018-05-04T21:50:17.195Z,5.47
2018-05-04T21:52:44.625Z,5.47
2018-05-04T21:55:12.077Z,4.87
2018-05-04T21:57:39.503Z,5.00
2018-05-04T22:00:06.938Z,5.60
2018-05-04T22:02:34.369Z,5.97
2018-05-04T22:05:02.574Z,5.77
2018-05-04T22:07:30.785Z,5.60
2018-05-04T22:09:58.229Z,5.40
2018-05-04T22:12:25.654Z,4.13
2018-05-04T22:14:53.093Z,4.53
2018-05-04T22:17:20.534Z,5.80
2018-05-04T22:19:47.977Z,4.40
2018-05-04T22:22:16.186Z,5.10
2018-05-04T22:24:44.393Z,4.63
2018-05-04T22:27:11.829Z,4.30
2018-05-04T22:29:39.274Z,4.30
2018-05-04T22:32:06.714Z,6.30
2018-05-04T22:34:34.918Z,4.40
2018-05-04T22:37:03.113Z,3.60
2018-05-04T22:39:31.321Z,6.03
2018-05-04T22:41:59.513Z,6.00
2018-05-04T22:44:27.719Z,4.20
2018-05-04T22:46:55.918Z,4.33
2018-05-04T22:49:23.360Z,4.60
2018-05-04T22:51:50.793Z,4.90
2018-05-04T22:54:18.238Z,4.47
2018-05-04T22:56:45.674Z,4.23
2018-05-04T22:59:13.136Z,4.03
2018-05-04T23:01:40.553Z,4.57
2018-05-04T23:04:07.994Z,4.17
2018-05-04T23:06:35.426Z,3.53
2018-05-04T23:09:02.883Z,4.37
2018-05-04T23:11:30.318Z,4.20
2018-05-04T23:13:58.529Z,4.57
2018-05-04T23:16:25.961Z,7.27
2018-05-04T23:18:53.407Z,4.60
2018-05-04T23:21:20.837Z,4.80
2018-05-04T23:23:48.278Z,5.23
2018-05-04T23:26:15.713Z,6.00
2018-05-04T23:28:43.922Z,4.20
2018-05-04T23:31:12.130Z,4.87
2018-05-04T23:33:39.565Z,3.83
2018-05-04T23:36:07.003Z,4.27
2018-05-04T23:38:34.446Z,5.23
2018-05-04T23:41:01.882Z,3.57
2018-05-04T23:43:29.318Z,4.20
2018-05-04T23:45:57.529Z,3.87
2018-05-04T23:48:25.724Z,4.23
2018-05-04T23:50:53.950Z,4.17
2018-05-04T23:53:21.374Z,4.50
2018-05-04T23:55:48.818Z,4.33
2018-05-04T23:58:16.248Z,4.03
